Time;durP1;ratioP1;P1;durP2;ratioP2;P2;SDS_P1;SDS_P2;PMS_P1;PMS_P2;Temp;Humidity;BMP_temperature;BMP_pressure;BME280_temperature;BME280_humidity;BME280_pressure;Samples;Min_cycle;Max_cycle;Signal;HPM_P1;HPM_P2
2023/04/15 00:01:19;;;;;;;15.90;7.82;;;8.50;99.90;;;;;;4776421;30;20189;-78
2023/04/15 00:03:46;;;;;;;19.02;7.25;;;8.40;99.90;;;;;;4807740;29;20192;-78
2023/04/15 00:06:12;;;;;;;14.40;7.75;;;8.40;99.90;;;;;;4808234;29;20192;-79
2023/04/15 00:08:38;;;;;;;22.33;8.15;;;8.40;99.90;;;;;;4807506;29;20298;-78
2023/04/15 00:11:04;;;;;;;12.95;7.00;;;8.40;99.90;;;;;;4791057;29;20200;-78
2023/04/15 00:13:32;;;;;;;16.88;8.23;;;8.40;99.90;;;;;;4788584;29;20197;-77
2023/04/15 00:15:58;;;;;;;13.90;7.93;;;8.40;99.90;;;;;;4801080;29;20196;-78
2023/04/15 00:18:24;;;;;;;15.07;8.35;;;8.30;99.90;;;;;;4791858;29;20267;-78
2023/04/15 00:20:51;;;;;;;17.50;8.13;;;8.40;99.90;;;;;;4807375;29;20283;-79
2023/04/15 00:23:17;;;;;;;13.00;7.93;;;8.40;99.90;;;;;;4794834;29;20200;-78
2023/04/15 00:25:43;;;;;;;15.18;8.55;;;8.40;99.90;;;;;;4803430;29;20200;-78
2023/04/15 00:28:09;;;;;;;13.85;8.20;;;8.40;99.90;;;;;;4807862;29;20222;-77
2023/04/15 00:30:34;;;;;;;14.02;8.32;;;8.40;99.90;;;;;;4806343;29;20653;-78
2023/04/15 00:33:03;;;;;;;15.30;8.38;;;8.30;99.90;;;;;;4784700;29;20666;-79
2023/04/15 00:35:31;;;;;;;17.70;9.13;;;8.40;99.90;;;;;;4805466;29;20676;-78
2023/04/15 00:37:57;;;;;;;15.00;8.57;;;8.30;99.90;;;;;;4799000;29;20315;-86
2023/04/15 00:40:23;;;;;;;14.50;9.13;;;8.30;99.90;;;;;;4791489;29;20245;-78
2023/04/15 00:42:49;;;;;;;15.32;9.15;;;8.30;99.90;;;;;;4790712;29;20196;-78
2023/04/15 00:45:15;;;;;;;17.10;9.45;;;8.30;99.90;;;;;;4807268;29;20200;-78
2023/04/15 00:47:42;;;;;;;15.55;8.63;;;8.30;99.90;;;;;;4808386;29;20200;-79
2023/04/15 00:50:09;;;;;;;12.85;8.77;;;8.30;99.90;;;;;;4791069;29;20561;-78
2023/04/15 00:52:36;;;;;;;15.40;8.45;;;8.30;99.90;;;;;;4790622;29;20322;-79
2023/04/15 00:55:03;;;;;;;14.07;8.73;;;8.30;99.90;;;;;;4776739;29;20188;-78
2023/04/15 00:57:29;;;;;;;12.98;8.57;;;8.30;99.90;;;;;;4791202;29;20276;-78
2023/04/15 00:59:56;;;;;;;15.20;9.40;;;8.20;99.90;;;;;;4807648;29;20604;-78
2023/04/15 01:02:22;;;;;;;17.77;9.40;;;8.20;99.90;;;;;;4806995;29;20208;-77
2023/04/15 01:04:49;;;;;;;16.42;8.80;;;8.20;99.90;;;;;;4775630;29;20185;-78
2023/04/15 01:07:16;;;;;;;17.50;8.82;;;8.20;99.90;;;;;;4791287;29;20714;-79
2023/04/15 01:09:42;;;;;;;15.05;9.40;;;8.30;99.90;;;;;;4791333;29;20192;-82
2023/04/15 01:12:11;;;;;;;17.27;8.85;;;8.20;99.90;;;;;;4811309;29;20663;-79
2023/04/15 01:14:37;;;;;;;13.27;9.10;;;8.20;99.90;;;;;;4792414;29;20184;-78
2023/04/15 01:17:03;;;;;;;18.58;9.73;;;8.20;99.90;;;;;;4807192;29;20219;-79
2023/04/15 01:19:30;;;;;;;13.10;9.23;;;8.20;99.90;;;;;;4787390;29;20196;-80
2023/04/15 01:21:56;;;;;;;14.27;9.57;;;8.20;99.90;;;;;;4779224;29;20192;-83
2023/04/15 01:24:22;;;;;;;13.95;9.50;;;8.20;99.90;;;;;;4790736;29;20210;-79
2023/04/15 01:26:49;;;;;;;16.88;9.48;;;8.20;99.90;;;;;;4808511;29;20192;-80
2023/04/15 01:29:15;;;;;;;17.38;9.68;;;8.20;99.90;;;;;;4790583;29;20195;-79
2023/04/15 01:31:49;;;;;;;18.35;9.90;;;8.20;99.90;;;;;;4806815;29;20191;-79
2023/04/15 01:34:15;;;;;;;15.63;9.40;;;8.10;99.90;;;;;;4790909;29;20195;-77
2023/04/15 01:36:41;;;;;;;14.95;9.43;;;8.10;99.90;;;;;;4805577;29;20204;-81
2023/04/15 01:39:07;;;;;;;16.40;9.50;;;8.10;99.90;;;;;;4789791;29;20574;-79
2023/04/15 01:41:33;;;;;;;14.18;9.45;;;8.10;99.90;;;;;;4790422;29;20196;-83
2023/04/15 01:43:59;;;;;;;17.60;9.10;;;8.10;99.90;;;;;;4804982;29;20196;-78
2023/04/15 01:46:25;;;;;;;15.73;10.02;;;8.00;99.90;;;;;;4805900;29;20201;-79
2023/04/15 01:48:52;;;;;;;16.00;9.77;;;8.00;99.90;;;;;;4790549;29;20196;-80
2023/04/15 01:51:18;;;;;;;15.20;9.73;;;7.90;99.90;;;;;;4790000;29;20195;-80
2023/04/15 01:53:44;;;;;;;17.25;11.00;;;7.80;99.90;;;;;;4789567;29;20243;-80
2023/04/15 01:56:10;;;;;;;16.98;10.80;;;7.80;99.90;;;;;;4775531;29;20303;-79
2023/04/15 01:58:36;;;;;;;15.38;10.90;;;7.80;99.90;;;;;;4786387;30;20227;-79
2023/04/15 02:01:03;;;;;;;24.58;11.07;;;7.70;99.90;;;;;;4788513;30;20197;-79
2023/04/15 02:03:31;;;;;;;14.65;11.20;;;7.70;99.90;;;;;;4777138;29;20451;-79
2023/04/15 02:05:56;;;;;;;17.52;11.95;;;7.60;99.90;;;;;;4775600;29;20325;-79
2023/04/15 02:08:22;;;;;;;21.20;12.15;;;7.60;99.90;;;;;;4775549;29;20192;-79
2023/04/15 02:10:48;;;;;;;22.08;12.00;;;7.50;99.90;;;;;;4806535;29;20223;-78
2023/04/15 02:13:14;;;;;;;21.52;12.85;;;7.50;99.90;;;;;;4790361;29;20200;-79
2023/04/15 02:15:39;;;;;;;18.77;12.73;;;7.50;99.90;;;;;;4799252;29;20648;-79
2023/04/15 02:18:06;;;;;;;18.92;12.38;;;7.40;99.90;;;;;;4795998;29;20220;-79
2023/04/15 02:20:32;;;;;;;18.45;13.43;;;7.40;99.90;;;;;;4794222;29;20199;-78
2023/04/15 02:22:57;;;;;;;19.98;14.25;;;7.30;99.90;;;;;;4805927;29;20200;-79
2023/04/15 02:25:23;;;;;;;20.52;13.43;;;7.30;99.90;;;;;;4774752;29;20200;-78
2023/04/15 02:27:49;;;;;;;19.80;13.13;;;7.20;99.90;;;;;;4790595;29;20215;-79
2023/04/15 02:30:16;;;;;;;21.42;13.25;;;7.20;99.90;;;;;;4790039;29;20219;-80
2023/04/15 02:32:43;;;;;;;20.95;13.38;;;7.20;99.90;;;;;;4788590;29;20216;-82
2023/04/15 02:35:09;;;;;;;22.67;13.20;;;7.10;99.90;;;;;;4789646;29;20604;-79
2023/04/15 02:37:42;;;;;;;18.77;12.90;;;7.10;99.90;;;;;;4775217;29;20224;-79
2023/04/15 02:40:12;;;;;;;22.75;14.13;;;7.10;99.90;;;;;;4786357;30;20188;-78
2023/04/15 02:42:38;;;;;;;23.52;13.52;;;7.10;99.90;;;;;;4802783;29;20559;-78
2023/04/15 02:45:06;;;;;;;21.95;13.68;;;7.00;99.90;;;;;;4788926;29;20661;-78
2023/04/15 02:47:34;;;;;;;24.20;14.00;;;7.00;99.90;;;;;;4775146;29;20203;-79
2023/04/15 02:50:04;;;;;;;22.52;14.55;;;7.00;99.90;;;;;;4789500;29;20657;-92
2023/04/15 02:52:31;;;;;;;20.23;13.52;;;7.00;99.90;;;;;;4774316;29;20230;-78
2023/04/15 02:54:59;;;;;;;21.63;13.98;;;7.00;99.90;;;;;;4773322;29;20305;-79
2023/04/15 02:57:29;;;;;;;20.25;14.48;;;6.90;99.90;;;;;;4783279;29;20228;-76
2023/04/15 02:59:57;;;;;;;20.13;14.10;;;6.90;99.90;;;;;;4795254;29;20184;-77
2023/04/15 03:02:23;;;;;;;20.52;14.02;;;6.90;99.90;;;;;;4782662;29;20196;-85
2023/04/15 03:04:49;;;;;;;21.75;14.15;;;6.80;99.90;;;;;;4770859;30;20197;-78
2023/04/15 03:07:17;;;;;;;21.33;13.82;;;6.80;99.90;;;;;;4797448;29;20196;-77
2023/04/15 03:09:43;;;;;;;25.55;13.75;;;6.80;99.90;;;;;;4788705;29;20184;-78
2023/04/15 03:12:09;;;;;;;23.20;14.43;;;6.80;99.90;;;;;;4773212;29;20223;-78
2023/04/15 03:14:35;;;;;;;25.60;15.73;;;6.80;99.90;;;;;;4790044;29;20233;-78
2023/04/15 03:17:00;;;;;;;23.08;14.77;;;6.70;99.90;;;;;;4787142;29;20239;-79
2023/04/15 03:19:27;;;;;;;25.67;15.13;;;6.70;99.90;;;;;;4788390;29;20192;-78
2023/04/15 03:21:53;;;;;;;24.10;14.95;;;6.70;99.90;;;;;;4787615;29;20208;-78
2023/04/15 03:24:19;;;;;;;26.10;15.95;;;6.70;99.90;;;;;;4788334;29;20646;-77
2023/04/15 03:26:45;;;;;;;23.88;15.50;;;6.70;99.90;;;;;;4787594;29;20236;-81
2023/04/15 03:29:14;;;;;;;24.23;15.63;;;6.60;99.90;;;;;;4788399;29;20231;-78
2023/04/15 03:31:40;;;;;;;23.17;15.32;;;6.60;99.90;;;;;;4788053;29;20216;-79
2023/04/15 03:34:06;;;;;;;23.63;15.75;;;6.50;99.90;;;;;;4787340;29;20199;-80
2023/04/15 03:36:32;;;;;;;28.33;16.67;;;6.50;99.90;;;;;;4760929;29;20279;-77
2023/04/15 03:38:58;;;;;;;26.20;17.13;;;6.50;99.90;;;;;;4789909;29;20669;-78
2023/04/15 03:41:25;;;;;;;25.17;15.95;;;6.60;99.90;;;;;;4804289;29;20187;-78
2023/04/15 03:43:51;;;;;;;29.90;16.88;;;6.50;99.90;;;;;;4804393;29;20662;-78
2023/04/15 03:46:17;;;;;;;27.23;16.65;;;6.50;99.90;;;;;;4806102;29;20191;-79
2023/04/15 03:48:43;;;;;;;28.95;17.00;;;6.50;99.90;;;;;;4791262;29;20614;-78
2023/04/15 03:51:08;;;;;;;24.27;15.80;;;6.50;99.90;;;;;;4807070;29;20184;-78
2023/04/15 03:53:34;;;;;;;27.55;17.00;;;6.50;99.90;;;;;;4796386;29;20188;-78
2023/04/15 03:56:00;;;;;;;25.10;16.85;;;6.50;99.90;;;;;;4771479;29;1099484;-77
2023/04/15 03:58:26;;;;;;;28.00;17.60;;;6.40;99.90;;;;;;4794557;29;20212;-77
2023/04/15 04:00:51;;;;;;;27.42;17.30;;;6.50;99.90;;;;;;4795600;29;20671;-81
2023/04/15 04:03:17;;;;;;;31.02;18.02;;;6.40;99.90;;;;;;4806795;29;20271;-78
2023/04/15 04:05:43;;;;;;;26.38;17.40;;;6.40;99.90;;;;;;4808304;29;20741;-77
2023/04/15 04:08:10;;;;;;;29.70;18.40;;;6.40;99.90;;;;;;4808363;29;20335;-78
2023/04/15 04:10:35;;;;;;;28.65;18.15;;;6.40;99.90;;;;;;4791980;29;20564;-83
2023/04/15 04:13:01;;;;;;;29.50;18.10;;;6.30;99.90;;;;;;4799989;29;20196;-78
2023/04/15 04:15:27;;;;;;;29.10;18.70;;;6.30;99.90;;;;;;4808402;29;20660;-78
2023/04/15 04:17:52;;;;;;;30.70;18.92;;;6.30;99.90;;;;;;4801860;29;20231;-78
2023/04/15 04:20:18;;;;;;;30.17;18.13;;;6.30;99.90;;;;;;4807214;29;20188;-78
2023/04/15 04:22:44;;;;;;;29.30;19.38;;;6.30;99.90;;;;;;4791257;29;20303;-79
2023/04/15 04:25:10;;;;;;;27.83;18.27;;;6.20;99.90;;;;;;4807375;29;20216;-78
2023/04/15 04:27:36;;;;;;;31.27;19.10;;;6.20;99.90;;;;;;4800707;29;20254;-78
2023/04/15 04:30:02;;;;;;;30.70;18.88;;;6.20;99.90;;;;;;4800290;29;20637;-81
2023/04/15 04:32:27;;;;;;;27.33;17.83;;;6.20;99.90;;;;;;4801530;29;20617;-78
2023/04/15 04:34:53;;;;;;;27.38;18.05;;;6.20;99.90;;;;;;4791726;29;20220;-78
2023/04/15 04:37:19;;;;;;;25.02;17.08;;;6.20;99.90;;;;;;4800357;29;20220;-78
2023/04/15 04:39:45;;;;;;;28.95;17.33;;;6.10;99.90;;;;;;4790187;30;20271;-78
2023/04/15 04:42:10;;;;;;;27.90;16.70;;;6.20;99.90;;;;;;4767040;30;20207;-78
2023/04/15 04:44:36;;;;;;;28.48;18.02;;;6.10;99.90;;;;;;4795844;29;20223;-78
2023/04/15 04:47:02;;;;;;;30.02;17.70;;;6.10;99.90;;;;;;4782903;29;20359;-79
2023/04/15 04:49:28;;;;;;;26.25;17.30;;;6.10;99.90;;;;;;4807482;29;20313;-78
2023/04/15 04:51:53;;;;;;;32.30;18.60;;;6.10;99.90;;;;;;4807383;29;20196;-79
2023/04/15 04:54:20;;;;;;;26.80;16.92;;;6.10;99.90;;;;;;4806667;29;20315;-79
2023/04/15 04:56:45;;;;;;;26.73;17.48;;;6.10;99.90;;;;;;4806397;29;20279;-82
2023/04/15 04:59:11;;;;;;;26.80;17.15;;;6.10;99.90;;;;;;4789909;29;20299;-78
2023/04/15 05:01:37;;;;;;;24.65;16.13;;;6.20;99.90;;;;;;4802134;29;20200;-78
2023/04/15 05:04:03;;;;;;;26.45;16.15;;;6.20;99.90;;;;;;4820911;29;20188;-78
2023/04/15 05:06:30;;;;;;;24.38;17.20;;;6.20;99.90;;;;;;4807774;29;20189;-78
2023/04/15 05:08:55;;;;;;;27.23;16.75;;;6.20;99.90;;;;;;4796102;29;20680;-79
2023/04/15 05:11:21;;;;;;;24.17;15.98;;;6.20;99.90;;;;;;4807807;29;20184;-78
2023/04/15 05:13:47;;;;;;;26.50;17.38;;;6.20;99.90;;;;;;4806771;29;20705;-78
2023/04/15 05:16:12;;;;;;;26.83;17.27;;;6.30;99.90;;;;;;4807259;29;20236;-79
2023/04/15 05:18:38;;;;;;;30.98;17.75;;;6.30;99.90;;;;;;4806013;29;20212;-78
2023/04/15 05:21:04;;;;;;;26.98;16.85;;;6.30;99.90;;;;;;4775598;29;20283;-78
2023/04/15 05:23:30;;;;;;;27.17;17.55;;;6.30;99.90;;;;;;4790868;29;20278;-77
2023/04/15 05:25:55;;;;;;;23.65;17.05;;;6.30;99.90;;;;;;4775685;29;20180;-77
2023/04/15 05:28:21;;;;;;;27.80;18.50;;;6.40;99.90;;;;;;4777321;29;20204;-75
2023/04/15 05:30:47;;;;;;;28.08;17.70;;;6.40;99.90;;;;;;4801640;29;20291;-76
2023/04/15 05:33:13;;;;;;;28.52;18.25;;;6.40;99.90;;;;;;4803501;29;20199;-77
2023/04/15 05:35:39;;;;;;;31.02;17.40;;;6.50;99.90;;;;;;4795814;29;20196;-76
2023/04/15 05:38:05;;;;;;;27.05;17.65;;;6.60;99.90;;;;;;4804315;29;20808;-76
2023/04/15 05:40:31;;;;;;;28.00;17.50;;;6.70;99.90;;;;;;4805853;29;20287;-76
2023/04/15 05:42:56;;;;;;;28.60;17.45;;;6.80;99.90;;;;;;4805414;29;20194;-77
2023/04/15 05:45:22;;;;;;;27.33;15.98;;;6.90;99.90;;;;;;4806314;29;20304;-77
2023/04/15 05:47:52;;;;;;;26.45;17.35;;;6.90;99.90;;;;;;4790418;29;20668;-77
2023/04/15 05:50:19;;;;;;;25.23;16.63;;;7.00;99.90;;;;;;4805653;29;20185;-76
2023/04/15 05:52:45;;;;;;;26.92;17.80;;;7.10;99.90;;;;;;4796199;29;20352;-78
2023/04/15 05:55:11;;;;;;;27.80;17.00;;;7.10;99.90;;;;;;4790852;29;20712;-82
2023/04/15 05:57:37;;;;;;;27.73;16.65;;;7.20;99.90;;;;;;4806063;29;20216;-78
2023/04/15 06:00:06;;;;;;;25.67;16.02;;;7.20;99.90;;;;;;4806211;29;20192;-78
2023/04/15 06:02:38;;;;;;;28.00;17.75;;;7.30;99.90;;;;;;4786249;29;20206;-79
2023/04/15 06:05:08;;;;;;;27.52;17.80;;;7.40;99.90;;;;;;4772537;30;20538;-78
2023/04/15 06:07:35;;;;;;;28.85;16.83;;;7.50;99.90;;;;;;4799598;29;20211;-77
2023/04/15 06:10:02;;;;;;;27.15;17.80;;;7.60;99.90;;;;;;4806593;29;20223;-78
2023/04/15 06:12:28;;;;;;;26.63;16.42;;;7.60;99.90;;;;;;4803825;29;20191;-77
2023/04/15 06:14:54;;;;;;;27.30;16.50;;;7.70;99.90;;;;;;4772180;30;20192;-78
2023/04/15 06:17:19;;;;;;;27.65;16.83;;;7.80;99.90;;;;;;4795939;29;20213;-77
2023/04/15 06:19:45;;;;;;;23.48;16.17;;;7.90;99.90;;;;;;4800484;29;20656;-78
2023/04/15 06:22:11;;;;;;;24.10;16.35;;;7.90;99.90;;;;;;4801000;29;20196;-78
2023/04/15 06:24:37;;;;;;;26.77;16.58;;;8.00;99.90;;;;;;4780973;29;20192;-78
2023/04/15 06:27:03;;;;;;;27.05;16.35;;;8.00;99.90;;;;;;4788588;29;20228;-78
2023/04/15 06:29:28;;;;;;;25.25;16.08;;;8.10;99.90;;;;;;4806489;29;20576;-78
2023/04/15 06:31:55;;;;;;;25.92;16.00;;;8.20;99.90;;;;;;4801258;29;20200;-78
2023/04/15 06:34:21;;;;;;;24.40;15.15;;;8.30;99.90;;;;;;4802546;29;20204;-82
2023/04/15 06:36:47;;;;;;;24.88;14.90;;;8.30;99.90;;;;;;4804691;29;20256;-79
2023/04/15 06:39:12;;;;;;;22.52;14.77;;;8.50;99.90;;;;;;4799439;29;20697;-82
2023/04/15 06:41:38;;;;;;;23.42;15.07;;;8.60;99.90;;;;;;4805297;29;20195;-79
2023/04/15 06:44:04;;;;;;;22.90;14.63;;;8.70;99.90;;;;;;4801166;29;20188;-78
2023/04/15 06:46:30;;;;;;;21.83;14.63;;;8.80;99.90;;;;;;4805658;29;20188;-79
2023/04/15 06:48:56;;;;;;;24.05;16.95;;;9.00;99.90;;;;;;4788437;29;20457;-77
2023/04/15 06:51:22;;;;;;;24.27;15.40;;;9.20;99.90;;;;;;4805303;29;20553;-77
2023/04/15 06:53:48;;;;;;;23.45;14.45;;;9.20;99.90;;;;;;4802878;29;20203;-78
2023/04/15 06:56:14;;;;;;;21.55;13.73;;;9.30;99.90;;;;;;4806562;29;20235;-76
2023/04/15 06:58:40;;;;;;;21.50;13.63;;;9.40;99.90;;;;;;4786672;29;20215;-85
2023/04/15 07:01:06;;;;;;;20.42;14.23;;;9.50;99.90;;;;;;4805285;29;20563;-76
2023/04/15 07:03:32;;;;;;;23.77;14.57;;;9.50;99.90;;;;;;4803815;29;20200;-75
2023/04/15 07:05:57;;;;;;;22.10;13.90;;;9.60;99.90;;;;;;4789589;29;20595;-75
2023/04/15 07:08:23;;;;;;;21.10;13.25;;;9.60;99.90;;;;;;4788157;29;20208;-75
2023/04/15 07:10:49;;;;;;;21.80;13.85;;;9.70;99.90;;;;;;4802897;29;20192;-77
2023/04/15 07:13:14;;;;;;;22.30;14.00;;;9.80;99.90;;;;;;4798398;29;20530;-75
2023/04/15 07:15:40;;;;;;;20.27;12.70;;;9.80;99.90;;;;;;4805514;29;20189;-75
2023/04/15 07:18:06;;;;;;;19.13;12.10;;;9.80;99.90;;;;;;4804058;29;20628;-76
2023/04/15 07:20:32;;;;;;;19.88;11.88;;;9.80;99.90;;;;;;4805848;29;20208;-75
2023/04/15 07:22:57;;;;;;;20.95;12.50;;;9.80;99.90;;;;;;4809052;29;20203;-76
2023/04/15 07:25:23;;;;;;;18.65;11.77;;;9.80;99.90;;;;;;4809121;29;20283;-81
2023/04/15 07:27:49;;;;;;;15.85;11.05;;;9.80;99.90;;;;;;4802228;29;20191;-77
2023/04/15 07:30:15;;;;;;;16.25;10.43;;;9.80;99.90;;;;;;4826076;29;20191;-76
2023/04/15 07:32:41;;;;;;;16.02;9.73;;;9.90;99.90;;;;;;4800689;29;20222;-76
2023/04/15 07:35:08;;;;;;;17.52;11.00;;;9.90;99.90;;;;;;4799077;29;20217;-76
2023/04/15 07:37:34;;;;;;;18.27;11.20;;;9.90;99.90;;;;;;4809705;29;20305;-76
2023/04/15 07:40:01;;;;;;;16.80;10.73;;;9.90;99.90;;;;;;4796120;29;20296;-77
2023/04/15 07:42:28;;;;;;;15.27;10.80;;;9.90;99.90;;;;;;4791587;29;20228;-77
2023/04/15 07:44:53;;;;;;;15.40;9.65;;;9.80;99.90;;;;;;4808523;29;20236;-76
2023/04/15 07:47:20;;;;;;;15.68;9.57;;;9.80;99.90;;;;;;4807387;29;20200;-77
2023/04/15 07:49:46;;;;;;;16.85;9.57;;;9.80;99.90;;;;;;4791936;29;20200;-76
2023/04/15 07:52:11;;;;;;;16.33;9.38;;;9.80;99.90;;;;;;4806224;29;20196;-78
2023/04/15 07:54:37;;;;;;;17.77;9.60;;;9.80;99.90;;;;;;4806765;29;20207;-79
2023/04/15 07:57:03;;;;;;;15.27;9.40;;;9.80;99.90;;;;;;4806130;29;20759;-74
2023/04/15 07:59:30;;;;;;;13.20;9.43;;;9.80;99.90;;;;;;4796052;29;20196;-79
2023/04/15 08:01:56;;;;;;;16.95;9.70;;;9.90;99.90;;;;;;4795398;29;20196;-75
2023/04/15 08:04:22;;;;;;;18.85;9.23;;;9.90;99.90;;;;;;4804801;29;20210;-79
2023/04/15 08:06:49;;;;;;;16.67;8.52;;;10.00;99.90;;;;;;4806541;29;20224;-75
2023/04/15 08:09:15;;;;;;;13.18;8.95;;;10.00;99.90;;;;;;4791918;29;20240;-75
2023/04/15 08:11:41;;;;;;;14.52;8.10;;;10.10;99.90;;;;;;4815012;29;20282;-75
2023/04/15 08:14:07;;;;;;;11.65;7.43;;;10.10;99.90;;;;;;4808406;29;20283;-77
2023/04/15 08:16:33;;;;;;;11.80;7.50;;;10.10;99.90;;;;;;4808359;29;20207;-76
2023/04/15 08:18:59;;;;;;;14.77;7.88;;;10.10;99.90;;;;;;4799059;29;20249;-75
2023/04/15 08:21:25;;;;;;;14.88;7.50;;;10.10;99.90;;;;;;4813806;29;21946;-81
2023/04/15 08:23:53;;;;;;;11.27;6.80;;;10.10;99.90;;;;;;4804802;29;20214;-77
2023/04/15 08:26:20;;;;;;;11.40;6.93;;;10.00;99.90;;;;;;4802415;29;20255;-76
2023/04/15 08:28:45;;;;;;;12.23;7.25;;;10.00;99.90;;;;;;4778817;29;20563;-80
2023/04/15 08:31:13;;;;;;;9.48;6.25;;;9.90;99.90;;;;;;4787522;29;20195;-77
2023/04/15 08:33:39;;;;;;;9.30;6.18;;;9.90;99.90;;;;;;4802952;29;20286;-76
2023/04/15 08:36:06;;;;;;;10.63;5.65;;;9.90;99.90;;;;;;4805865;29;20283;-76
2023/04/15 08:38:32;;;;;;;11.88;5.78;;;9.90;99.90;;;;;;4797522;29;20219;-77
2023/04/15 08:41:05;;;;;;;9.80;5.35;;;9.90;99.90;;;;;;4805101;29;20614;-77
2023/04/15 08:43:34;;;;;;;10.70;5.20;;;9.90;99.90;;;;;;4780967;29;20658;-77
2023/04/15 08:46:01;;;;;;;10.18;5.40;;;9.90;99.90;;;;;;4805061;29;20192;-77
2023/04/15 08:48:30;;;;;;;9.98;4.65;;;9.90;99.90;;;;;;4796526;29;20211;-76
2023/04/15 08:50:56;;;;;;;8.10;4.35;;;9.90;99.90;;;;;;4798291;29;20211;-76
2023/04/15 08:53:23;;;;;;;8.30;4.50;;;9.90;99.90;;;;;;4800129;29;20220;-76
2023/04/15 08:55:51;;;;;;;8.60;3.72;;;10.00;99.90;;;;;;4797286;29;20578;-76
2023/04/15 08:58:18;;;;;;;11.15;4.40;;;10.00;99.90;;;;;;4802891;29;20224;-76
2023/04/15 09:00:44;;;;;;;7.57;4.00;;;10.00;99.90;;;;;;4806801;29;20192;-76
2023/04/15 09:03:10;;;;;;;7.72;4.18;;;10.00;99.90;;;;;;4800459;29;20229;-76
2023/04/15 09:05:37;;;;;;;6.10;3.70;;;10.10;99.90;;;;;;4798873;29;20187;-76
2023/04/15 09:08:04;;;;;;;8.77;3.80;;;10.00;99.90;;;;;;4794536;29;20189;-76
2023/04/15 09:10:31;;;;;;;6.97;3.55;;;10.10;99.90;;;;;;4789227;29;20203;-75
2023/04/15 09:12:57;;;;;;;10.05;3.88;;;10.10;99.90;;;;;;4800125;29;20646;-76
2023/04/15 09:15:28;;;;;;;9.20;3.50;;;10.10;99.90;;;;;;4807374;29;20203;-75
2023/04/15 09:17:54;;;;;;;5.93;3.25;;;10.10;99.90;;;;;;4804172;29;20247;-79
2023/04/15 09:20:20;;;;;;;7.75;3.50;;;10.10;99.90;;;;;;4779670;29;20520;-76
2023/04/15 09:22:48;;;;;;;6.57;3.50;;;10.20;99.90;;;;;;4797557;29;20208;-75
2023/04/15 09:25:28;;;;;;;8.43;3.28;;;10.20;99.90;;;;;;4800908;29;20184;-75
2023/04/15 09:27:56;;;;;;;5.93;3.17;;;10.20;99.90;;;;;;4805303;29;20286;-76
2023/04/15 09:30:23;;;;;;;4.97;2.70;;;10.30;99.90;;;;;;4806945;29;20267;-76
2023/04/15 09:33:01;;;;;;;7.70;2.70;;;10.40;99.90;;;;;;4812363;29;20192;-76
2023/04/15 09:35:27;;;;;;;5.15;2.30;;;10.40;99.90;;;;;;4789927;29;20282;-76
2023/04/15 09:38:02;;;;;;;4.65;2.80;;;10.50;99.90;;;;;;4804805;29;20568;-77
2023/04/15 09:40:36;;;;;;;5.22;2.67;;;10.60;99.90;;;;;;4790218;29;20755;-75
2023/04/15 09:43:03;;;;;;;4.28;2.60;;;10.70;99.90;;;;;;4804994;29;20282;-75
2023/04/15 09:45:30;;;;;;;5.32;2.70;;;10.70;99.90;;;;;;4806751;29;20185;-75
2023/04/15 09:48:17;;;;;;;4.13;2.63;;;10.70;99.90;;;;;;4806053;29;20220;-76
2023/04/15 09:50:43;;;;;;;4.70;2.67;;;10.70;99.90;;;;;;4804354;29;20260;-76
2023/04/15 09:53:19;;;;;;;5.70;2.65;;;10.70;99.90;;;;;;4781029;29;20207;-77
2023/04/15 09:55:56;;;;;;;5.05;2.53;;;10.60;99.90;;;;;;4775381;29;20656;-76
2023/04/15 09:58:25;;;;;;;4.63;2.13;;;10.60;99.90;;;;;;4808496;29;20248;-79
2023/04/15 10:00:53;;;;;;;7.20;2.50;;;10.60;99.90;;;;;;4789312;29;20188;-76
2023/04/15 10:03:26;;;;;;;4.72;2.22;;;10.60;99.90;;;;;;4805688;29;20195;-76
2023/04/15 10:05:55;;;;;;;7.88;2.53;;;10.60;99.90;;;;;;4789047;29;20184;-75
2023/04/15 10:08:23;;;;;;;5.60;2.20;;;10.60;99.90;;;;;;4805421;29;20264;-75
2023/04/15 10:10:51;;;;;;;5.32;2.30;;;10.70;99.90;;;;;;4806102;29;20245;-76
2023/04/15 10:13:18;;;;;;;10.60;2.70;;;10.70;99.90;;;;;;4805072;29;20711;-76
2023/04/15 10:15:50;;;;;;;4.25;2.40;;;10.70;99.90;;;;;;4774934;29;20905;-76
2023/04/15 10:18:20;;;;;;;6.57;2.55;;;10.70;99.90;;;;;;4806313;29;20216;-77
2023/04/15 10:20:47;;;;;;;4.18;2.50;;;10.80;99.90;;;;;;4806017;29;20188;-77
2023/04/15 10:23:14;;;;;;;6.53;2.67;;;10.80;99.90;;;;;;4804689;29;20266;-76
2023/04/15 10:25:41;;;;;;;5.78;2.60;;;10.70;99.90;;;;;;4806005;29;20188;-76
2023/04/15 10:28:07;;;;;;;7.22;3.03;;;10.70;99.90;;;;;;4799898;29;20579;-76
2023/04/15 10:30:33;;;;;;;6.20;2.90;;;10.60;99.90;;;;;;4806105;29;20187;-76
2023/04/15 10:33:01;;;;;;;10.68;2.95;;;10.60;99.90;;;;;;4795109;29;20189;-76
2023/04/15 10:35:29;;;;;;;6.95;2.85;;;10.70;99.90;;;;;;4801423;29;20606;-76
2023/04/15 10:37:55;;;;;;;10.05;2.92;;;10.60;99.90;;;;;;4788366;29;20672;-77
2023/04/15 10:40:25;;;;;;;11.95;3.90;;;10.60;99.90;;;;;;4798574;29;20215;-77
2023/04/15 10:42:50;;;;;;;6.97;3.17;;;10.60;99.90;;;;;;4792650;29;20191;-77
2023/04/15 10:45:18;;;;;;;8.82;3.55;;;10.50;99.90;;;;;;4788080;30;20276;-77
2023/04/15 10:47:44;;;;;;;9.50;3.42;;;10.50;99.90;;;;;;4803355;29;20266;-76
2023/04/15 10:50:10;;;;;;;6.20;3.03;;;10.50;99.90;;;;;;4790026;29;20624;-75
2023/04/15 10:52:40;;;;;;;8.02;3.35;;;10.50;99.90;;;;;;4798111;29;20189;-77
2023/04/15 10:55:20;;;;;;;6.95;2.90;;;10.50;99.90;;;;;;4793679;29;20721;-78
2023/04/15 10:57:46;;;;;;;10.23;3.88;;;10.40;99.90;;;;;;4787321;29;20708;-77
2023/04/15 11:00:15;;;;;;;7.28;3.53;;;10.50;99.90;;;;;;4775554;30;20191;-76
2023/04/15 11:03:07;;;;;;;10.43;3.53;;;10.50;99.90;;;;;;4783220;29;20205;-77
2023/04/15 11:05:48;;;;;;;14.55;3.13;;;10.50;99.90;;;;;;4809466;29;20192;-76
2023/04/15 11:08:15;;;;;;;10.23;2.90;;;10.50;99.90;;;;;;4807992;29;20199;-76
2023/04/15 11:10:40;;;;;;;14.32;3.08;;;10.50;99.90;;;;;;4807505;29;20229;-79
2023/04/15 11:13:16;;;;;;;10.55;2.80;;;10.50;99.90;;;;;;4797660;29;20185;-76
2023/04/15 11:15:46;;;;;;;10.20;3.10;;;10.50;99.90;;;;;;4775028;30;20208;-77
2023/04/15 11:18:21;;;;;;;7.45;2.72;;;10.50;99.90;;;;;;4802360;29;20231;-76
2023/04/15 11:20:49;;;;;;;7.13;2.63;;;10.70;99.90;;;;;;4808697;29;20200;-76
2023/04/15 11:23:26;;;;;;;12.88;2.70;;;10.70;99.90;;;;;;4807425;29;20196;-76
2023/04/15 11:25:55;;;;;;;10.65;2.80;;;10.70;99.90;;;;;;4792613;29;20258;-76
2023/04/15 11:28:29;;;;;;;12.13;2.78;;;10.70;99.90;;;;;;4787507;29;20269;-76
2023/04/15 11:30:55;;;;;;;13.90;2.78;;;10.70;99.90;;;;;;4791967;29;20195;-76
2023/04/15 11:33:22;;;;;;;7.97;2.67;;;10.70;99.90;;;;;;4808587;29;20196;-75
2023/04/15 11:35:49;;;;;;;12.45;2.70;;;10.70;99.90;;;;;;4808417;29;20196;-75
2023/04/15 11:38:15;;;;;;;14.93;3.00;;;10.80;99.90;;;;;;4796225;29;20676;-76
2023/04/15 11:40:42;;;;;;;12.02;2.63;;;10.80;99.90;;;;;;4785274;29;20566;-75
2023/04/15 11:43:13;;;;;;;12.43;2.60;;;10.90;99.90;;;;;;4806959;29;20275;-77
2023/04/15 11:45:59;;;;;;;11.88;3.13;;;10.90;99.90;;;;;;4808489;29;20271;-78
2023/04/15 11:48:27;;;;;;;11.00;3.45;;;10.90;99.90;;;;;;4792425;29;20200;-75
2023/04/15 11:50:57;;;;;;;8.93;2.67;;;10.80;99.90;;;;;;4792309;29;20503;-78
2023/04/15 11:53:34;;;;;;;10.48;2.60;;;10.80;99.90;;;;;;4802722;29;20200;-76
2023/04/15 11:56:00;;;;;;;8.27;3.03;;;10.80;99.90;;;;;;4793264;29;20685;-79
2023/04/15 11:58:26;;;;;;;9.30;3.00;;;10.80;99.90;;;;;;4808067;29;20640;-77
2023/04/15 12:00:59;;;;;;;13.02;3.10;;;10.80;99.90;;;;;;4808261;29;20188;-79
2023/04/15 12:03:32;;;;;;;10.50;2.85;;;10.80;99.90;;;;;;4780485;29;20193;-78
2023/04/15 12:06:17;;;;;;;8.27;2.55;;;10.70;99.90;;;;;;4808137;29;20176;-76
2023/04/15 12:08:55;;;;;;;11.32;2.35;;;10.70;99.90;;;;;;4776097;29;20193;-78
2023/04/15 12:11:29;;;;;;;5.88;2.30;;;10.70;99.90;;;;;;4790354;30;20184;-75
2023/04/15 12:14:14;;;;;;;10.35;2.58;;;10.70;99.90;;;;;;4787948;29;20546;-76
2023/04/15 12:16:46;;;;;;;11.18;2.67;;;10.70;99.90;;;;;;4774080;29;20252;-79
2023/04/15 12:19:14;;;;;;;10.20;2.67;;;10.70;99.90;;;;;;4790095;30;20351;-79
2023/04/15 12:21:43;;;;;;;12.60;2.50;;;10.80;99.90;;;;;;4789448;29;20277;-77
2023/04/15 12:24:11;;;;;;;7.32;2.10;;;10.80;99.90;;;;;;4808576;29;20241;-78
2023/04/15 12:26:45;;;;;;;7.55;2.22;;;10.90;99.90;;;;;;4807177;29;20676;-84
2023/04/15 12:29:12;;;;;;;12.65;2.50;;;10.90;99.90;;;;;;4793987;29;20675;-77
2023/04/15 12:31:55;;;;;;;10.95;2.58;;;10.90;99.90;;;;;;4807217;29;20196;-79
2023/04/15 12:34:33;;;;;;;7.53;2.55;;;10.90;99.90;;;;;;4803294;29;20206;-76
2023/04/15 12:37:01;;;;;;;9.98;2.25;;;10.90;99.90;;;;;;4789287;29;20218;-76
2023/04/15 12:39:30;;;;;;;9.10;2.50;;;10.90;99.90;;;;;;4804403;29;20548;-80
2023/04/15 12:41:55;;;;;;;9.52;2.30;;;10.90;99.90;;;;;;4791214;29;20188;-76